Time;durP1;ratioP1;P1;durP2;ratioP2;P2;SDS_P1;SDS_P2;PMS_P1;PMS_P2;Temp;Humidity;BMP_temperature;BMP_pressure;BME280_temperature;BME280_humidity;BME280_pressure;Samples;Min_cycle;Max_cycle;Signal;HPM_P1;HPM_P2
2022/10/12 05:03:29;;;;;;;;;11.00;10.00;;;;;10.63;66.14;102155.31;2739803;23;45864;-81
2022/10/12 05:04:40;;;;;;;;;12.25;10.50;;;;;10.63;66.08;102149.16;2378796;28;45569;-81
2022/10/12 05:05:50;;;;;;;;;10.75;9.25;;;;;10.64;66.05;102150.94;2380792;28;46318;-81
2022/10/12 05:07:01;;;;;;;;;13.25;11.25;;;;;10.62;66.07;102148.28;2381977;28;45361;-81
2022/10/12 05:08:12;;;;;;;;;12.75;9.50;;;;;10.62;65.99;102150.91;2383350;28;47117;-81
2022/10/12 05:09:22;;;;;;;;;11.00;11.00;;;;;10.64;65.87;102148.31;2376378;28;45747;-82
2022/10/12 05:10:32;;;;;;;;;13.75;12.75;;;;;10.65;66.03;102147.38;2377872;28;46599;-82
2022/10/12 05:11:43;;;;;;;;;14.00;10.50;;;;;10.63;66.14;102147.41;2394807;28;44645;-82
2022/10/12 05:12:53;;;;;;;;;12.75;11.00;;;;;10.64;66.22;102140.41;2393489;28;45412;-82
2022/10/12 05:14:04;;;;;;;;;16.25;13.00;;;;;10.65;66.07;102142.13;2393396;28;45226;-82
2022/10/12 05:15:14;;;;;;;;;14.50;11.75;;;;;10.64;65.91;102141.25;2383476;28;47253;-82
2022/10/12 05:16:25;;;;;;;;;12.75;10.50;;;;;10.64;66.18;102138.63;2385753;28;45330;-82
2022/10/12 05:17:35;;;;;;;;;11.00;9.00;;;;;10.64;66.00;102140.41;2393692;28;46119;-82
2022/10/12 05:18:45;;;;;;;;;13.75;11.75;;;;;10.62;66.12;102142.19;2393630;28;45359;-82
2022/10/12 05:19:56;;;;;;;;;11.75;11.00;;;;;10.64;66.27;102143.03;2393508;28;45494;-82
2022/10/12 05:21:06;;;;;;;;;14.00;11.25;;;;;10.61;65.87;102143.94;2394705;28;46320;-81
2022/10/12 05:22:16;;;;;;;;;10.75;10.50;;;;;10.63;66.41;102141.28;2382016;28;47669;-83
2022/10/12 05:23:27;;;;;;;;;14.75;11.25;;;;;10.61;66.17;102140.44;2384668;28;44673;-83
2022/10/12 05:24:37;;;;;;;;;12.50;10.00;;;;;10.62;66.13;102131.66;2379073;28;46945;-82
2022/10/12 05:25:47;;;;;;;;;12.75;11.00;;;;;10.61;65.98;102137.81;2385540;28;45551;-83
2022/10/12 05:26:58;;;;;;;;;16.75;13.75;;;;;10.60;66.19;102144.81;2393612;28;46306;-83
2022/10/12 05:28:08;;;;;;;;;16.50;12.75;;;;;10.61;65.92;102141.31;2393657;28;45377;-83
2022/10/12 05:29:18;;;;;;;;;16.25;15.00;;;;;10.61;66.14;102149.19;2392610;28;45425;-83
2022/10/12 05:30:29;;;;;;;;;15.50;13.00;;;;;10.58;66.00;102146.59;2390380;28;45298;-82
2022/10/12 05:31:39;;;;;;;;;16.75;15.25;;;;;10.57;66.11;102148.34;2381267;28;47315;-83
2022/10/12 05:32:50;;;;;;;;;17.75;13.00;;;;;10.57;66.14;102147.47;2386155;28;45370;-83
2022/10/12 05:34:01;;;;;;;;;14.00;12.50;;;;;10.57;66.19;102145.72;2390166;28;45531;-83
2022/10/12 05:35:11;;;;;;;;;16.00;14.25;;;;;10.57;66.21;102153.59;2393525;28;45440;-83
2022/10/12 05:36:21;;;;;;;;;16.00;13.25;;;;;10.56;65.88;102159.78;2380520;28;46937;-83
2022/10/12 05:37:33;;;;;;;;;19.25;14.00;;;;;10.55;66.20;102150.13;2385310;28;44814;-82
2022/10/12 05:38:43;;;;;;;;;17.00;15.00;;;;;10.56;66.00;102154.50;2381570;28;48194;-82
2022/10/12 05:39:53;;;;;;;;;18.00;16.50;;;;;10.54;66.06;102155.41;2385368;28;45621;-83
2022/10/12 05:41:04;;;;;;;;;19.00;16.00;;;;;10.55;65.97;102147.50;2393427;28;45371;-83
2022/10/12 05:42:15;;;;;;;;;18.25;17.00;;;;;10.53;66.32;102149.28;2392262;28;45306;-83
2022/10/12 05:43:25;;;;;;;;;16.75;15.00;;;;;10.52;66.10;102149.31;2391815;28;45369;-83
2022/10/12 05:44:36;;;;;;;;;17.75;17.25;;;;;10.53;66.00;102159.78;2390147;28;45245;-83
2022/10/12 05:45:46;;;;;;;;;19.50;14.00;;;;;10.53;65.96;102153.66;2393424;28;45370;-83
2022/10/12 05:46:56;;;;;;;;;21.00;16.75;;;;;10.53;66.16;102158.91;2383513;28;45410;-83
2022/10/12 05:48:07;;;;;;;;;15.25;14.50;;;;;10.50;66.27;102151.88;2384247;28;45384;-83
2022/10/12 05:49:17;;;;;;;;;20.00;16.25;;;;;10.52;66.55;102152.78;2381308;28;45223;-83
2022/10/12 05:50:28;;;;;;;;;14.25;12.25;;;;;10.53;65.94;102157.16;2385841;28;45388;-83
2022/10/12 05:51:39;;;;;;;;;14.50;13.75;;;;;10.52;66.28;102151.94;2383516;28;45461;-83
2022/10/12 05:52:49;;;;;;;;;19.25;17.50;;;;;10.52;66.21;102155.41;2386602;28;45498;-83
2022/10/12 05:54:00;;;;;;;;;18.50;15.25;;;;;10.52;66.39;102155.41;2393488;28;45349;-83
2022/10/12 05:55:10;;;;;;;;;19.75;15.25;;;;;10.50;66.48;102157.16;2393325;28;45604;-83
2022/10/12 05:56:21;;;;;;;;;18.75;16.50;;;;;10.51;66.46;102150.16;2393055;28;45275;-81
2022/10/12 05:57:31;;;;;;;;;18.75;17.50;;;;;10.50;66.40;102154.53;2383518;28;47127;-81
2022/10/12 05:58:42;;;;;;;;;16.25;14.00;;;;;10.50;66.32;102151.00;2386172;28;45310;-81
2022/10/12 05:59:52;;;;;;;;;15.50;14.25;;;;;10.51;66.27;102155.44;2381466;28;47091;-80
2022/10/12 06:01:05;;;;;;;;;15.00;15.00;;;;;10.48;66.59;102156.28;2386787;28;44862;-80
2022/10/12 06:02:16;;;;;;;;;21.50;17.50;;;;;10.46;66.64;102150.19;2393093;28;48099;-80
2022/10/12 06:03:27;;;;;;;;;19.00;16.00;;;;;10.47;66.40;102150.16;2386285;28;45275;-80
2022/10/12 06:04:37;;;;;;;;;15.75;15.25;;;;;10.45;66.37;102138.78;2393772;28;45185;-80
2022/10/12 06:05:47;;;;;;;;;19.50;16.00;;;;;10.47;66.54;102150.16;2403620;28;45427;-80
2022/10/12 06:06:58;;;;;;;;;17.00;16.25;;;;;10.46;66.54;102142.31;2393922;28;46323;-81
2022/10/12 06:08:08;;;;;;;;;20.75;14.25;;;;;10.47;66.56;102144.91;2393770;28;45223;-80
2022/10/12 06:09:19;;;;;;;;;21.00;16.50;;;;;10.48;66.57;102148.41;2394083;28;45377;-81
2022/10/12 06:10:29;;;;;;;;;19.50;17.25;;;;;10.45;66.59;102140.53;2394028;28;45337;-81
2022/10/12 06:11:40;;;;;;;;;17.75;14.50;;;;;10.46;66.38;102147.56;2383529;28;46237;-81
2022/10/12 06:12:50;;;;;;;;;19.00;17.75;;;;;10.45;66.56;102140.53;2384486;28;45339;-81
2022/10/12 06:14:01;;;;;;;;;17.00;13.00;;;;;10.46;66.48;102142.31;2383900;28;48148;-81
2022/10/12 06:15:11;;;;;;;;;20.25;16.75;;;;;10.45;66.59;102141.44;2386794;28;45289;-81
2022/10/12 06:16:22;;;;;;;;;19.75;16.50;;;;;10.49;66.52;102146.66;2383511;28;46256;-81
2022/10/12 06:17:32;;;;;;;;;17.00;15.00;;;;;10.47;66.35;102144.03;2383252;28;44804;-81
2022/10/12 06:18:42;;;;;;;;;19.00;15.75;;;;;10.49;66.56;102147.53;2385916;28;45703;-81
2022/10/12 06:19:53;;;;;;;;;19.50;15.75;;;;;10.48;66.54;102148.41;2383673;28;45420;-81
2022/10/12 06:21:03;;;;;;;;;18.00;16.50;;;;;10.49;66.59;102142.28;2386721;28;45367;-81
2022/10/12 06:22:13;;;;;;;;;20.00;18.75;;;;;10.50;66.59;102149.25;2394007;28;45222;-81
2022/10/12 06:23:24;;;;;;;;;16.00;14.75;;;;;10.49;66.57;102144.91;2393870;28;46594;-81
2022/10/12 06:24:34;;;;;;;;;14.75;11.00;;;;;10.49;66.48;102144.03;2394094;28;44602;-81
2022/10/12 06:25:46;;;;;;;;;20.50;16.00;;;;;10.50;66.79;102148.38;2392589;28;45608;-81
2022/10/12 06:26:57;;;;;;;;;19.50;17.00;;;;;10.50;66.59;102140.50;2393761;28;44665;-81
2022/10/12 06:28:07;;;;;;;;;25.00;18.25;;;;;10.52;66.58;102157.19;2393640;28;46229;-81
2022/10/12 06:29:18;;;;;;;;;19.75;15.00;;;;;10.53;66.58;102151.91;2392539;28;45215;-81
2022/10/12 06:30:28;;;;;;;;;19.50;18.50;;;;;10.54;66.64;102151.00;2393035;28;47544;-81
2022/10/12 06:31:38;;;;;;;;;19.50;14.00;;;;;10.54;66.53;102145.75;2383452;28;45436;-81
2022/10/12 06:32:49;;;;;;;;;19.00;16.75;;;;;10.57;67.00;102155.34;2383674;28;45275;-81
2022/10/12 06:33:59;;;;;;;;;19.50;18.00;;;;;10.55;66.86;102152.75;2374401;28;45837;-81
2022/10/12 06:35:09;;;;;;;;;21.00;16.75;;;;;10.58;66.93;102159.75;2384701;28;46096;-81
2022/10/12 06:36:20;;;;;;;;;17.00;15.75;;;;;10.60;66.73;102164.97;2389810;28;45432;-81
2022/10/12 06:37:30;;;;;;;;;19.50;16.75;;;;;10.59;66.92;102161.50;2393741;28;46147;-81
2022/10/12 06:38:41;;;;;;;;;19.00;17.50;;;;;10.58;66.67;102159.75;2393924;28;45246;-81
2022/10/12 06:39:51;;;;;;;;;21.25;17.00;;;;;10.61;66.83;102162.34;2383493;28;45831;-83
2022/10/12 06:41:01;;;;;;;;;21.00;18.50;;;;;10.61;66.92;102161.47;2386562;28;45513;-83
2022/10/12 06:42:12;;;;;;;;;22.25;19.50;;;;;10.63;67.08;102167.56;2383548;28;47063;-83
2022/10/12 06:43:23;;;;;;;;;17.50;16.25;;;;;10.65;67.23;102171.06;2376302;28;45652;-83
2022/10/12 06:44:33;;;;;;;;;19.00;18.00;;;;;10.67;66.96;102171.91;2384639;28;45618;-83
2022/10/12 06:45:43;;;;;;;;;21.00;18.25;;;;;10.67;67.12;102171.91;2382239;28;45396;-83
2022/10/12 06:46:54;;;;;;;;;21.00;17.50;;;;;10.69;67.18;102170.16;2385481;28;46275;-83
2022/10/12 06:48:04;;;;;;;;;19.25;19.00;;;;;10.69;66.92;102170.16;2395013;28;45214;-82
2022/10/12 06:49:16;;;;;;;;;18.75;16.00;;;;;10.72;67.21;102175.38;2393433;28;45352;-82
2022/10/12 06:50:27;;;;;;;;;21.50;17.25;;;;;10.71;67.18;102168.38;2393242;28;45488;-83
2022/10/12 06:51:37;;;;;;;;;18.25;16.50;;;;;10.72;66.80;102170.09;2393828;28;46282;-83
2022/10/12 06:52:48;;;;;;;;;22.75;19.50;;;;;10.73;67.08;102169.22;2380032;28;45410;-82
2022/10/12 06:53:58;;;;;;;;;26.25;22.25;;;;;10.76;67.27;102173.59;2391216;28;46197;-82
2022/10/12 06:55:09;;;;;;;;;25.75;18.25;;;;;10.77;67.44;102172.69;2386376;28;45330;-82
2022/10/12 06:56:19;;;;;;;;;18.75;17.00;;;;;10.79;67.32;102177.03;2393374;28;45401;-82
2022/10/12 06:57:30;;;;;;;;;18.25;15.50;;;;;10.82;67.24;102184.03;2393662;28;45304;-82
2022/10/12 06:58:40;;;;;;;;;18.00;17.75;;;;;10.84;67.46;102176.16;2393559;28;46075;-82
2022/10/12 06:59:51;;;;;;;;;23.00;20.00;;;;;10.83;67.32;102179.66;2392855;28;45437;-82
2022/10/12 07:01:07;;;;;;;;;19.00;16.75;;;;;10.87;67.33;102178.72;2395746;28;45399;-82
2022/10/12 07:02:17;;;;;;;;;19.75;17.75;;;;;10.88;67.72;102176.09;2403172;28;45211;-82
2022/10/12 07:03:28;;;;;;;;;20.75;15.25;;;;;10.88;67.73;102173.47;2388718;28;48319;-83
2022/10/12 07:04:38;;;;;;;;;22.75;19.00;;;;;10.90;67.59;102168.16;2376833;28;45357;-82
2022/10/12 07:05:48;;;;;;;;;21.00;20.00;;;;;10.95;67.64;102168.13;2394806;28;46337;-83
2022/10/12 07:06:59;;;;;;;;;26.00;19.00;;;;;10.96;67.65;102175.13;2393176;28;45183;-82
2022/10/12 07:08:09;;;;;;;;;19.50;19.50;;;;;10.98;67.60;102182.13;2393540;28;46079;-82
2022/10/12 07:09:19;;;;;;;;;23.25;19.50;;;;;11.01;67.85;102179.44;2392850;28;44612;-82
2022/10/12 07:10:30;;;;;;;;;21.25;17.50;;;;;11.01;67.89;102171.53;2395541;28;45300;-82
2022/10/12 07:11:40;;;;;;;;;23.50;22.00;;;;;11.07;67.92;102182.88;2396118;28;44780;-82
2022/10/12 07:12:51;;;;;;;;;22.25;20.25;;;;;11.08;68.01;102174.13;2393517;28;46079;-83
2022/10/12 07:14:01;;;;;;;;;6.50;6.00;;;;;11.12;67.85;102184.56;2393871;28;45150;-82
2022/10/12 07:15:11;;;;;;;;;21.00;20.00;;;;;11.14;67.89;102182.78;2393187;28;45336;-82
2022/10/12 07:16:22;;;;;;;;;29.50;26.75;;;;;11.17;67.58;102184.53;2383584;28;45167;-82
2022/10/12 07:17:32;;;;;;;;;29.00;23.00;;;;;11.19;68.19;102185.38;2384821;28;45434;-83
2022/10/12 07:18:43;;;;;;;;;31.00;26.00;;;;;11.24;68.02;102188.81;2392686;28;45331;-83
2022/10/12 07:19:53;;;;;;;;;31.75;28.50;;;;;11.27;67.88;102181.78;2393305;28;45326;-83
2022/10/12 07:21:03;;;;;;;;;28.25;27.75;;;;;11.29;67.96;102179.97;2393626;28;45258;-83
2022/10/12 07:22:14;;;;;;;;;27.25;26.00;;;;;11.32;67.99;102179.94;2393517;28;45250;-82
2022/10/12 07:23:26;;;;;;;;;34.25;28.75;;;;;11.36;68.00;102186.91;2393695;28;45163;-83
2022/10/12 07:24:36;;;;;;;;;32.75;30.00;;;;;11.39;68.12;102186.00;2393387;28;45404;-82
2022/10/12 07:25:48;;;;;;;;;29.25;27.00;;;;;11.41;67.89;102185.09;2393595;28;45182;-82
2022/10/12 07:26:59;;;;;;;;;29.25;28.00;;;;;11.46;68.04;102187.66;2393462;28;46641;-82
2022/10/12 07:28:09;;;;;;;;;33.50;28.75;;;;;11.50;68.01;102188.50;2393273;28;45444;-83
2022/10/12 07:29:20;;;;;;;;;35.50;29.75;;;;;11.52;67.98;102195.50;2393234;28;46120;-82
2022/10/12 07:30:31;;;;;;;;;35.00;29.25;;;;;11.55;68.07;102187.56;2392546;28;44744;-82
2022/10/12 07:31:41;;;;;;;;;33.00;31.75;;;;;11.58;68.12;102199.81;2392911;28;45428;-83
2022/10/12 07:32:53;;;;;;;;;37.75;30.75;;;;;11.63;68.16;102189.22;2393655;28;45360;-82
2022/10/12 07:34:03;;;;;;;;;30.50;29.25;;;;;11.67;67.97;102197.03;2393063;28;46465;-82
2022/10/12 07:35:14;;;;;;;;;34.00;30.75;;;;;11.70;68.04;102191.72;2402868;28;45423;-82
2022/10/12 07:36:24;;;;;;;;;39.50;31.25;;;;;11.73;67.83;102196.06;2402909;28;45211;-82
2022/10/12 07:37:34;;;;;;;;;33.00;29.50;;;;;11.75;67.64;102199.56;2402608;28;44588;-82
2022/10/12 07:38:47;;;;;;;;;36.00;29.50;;;;;11.78;67.82;102199.50;2392516;28;46862;-83
2022/10/12 07:39:57;;;;;;;;;37.75;31.50;;;;;11.81;67.82;102201.22;2386846;28;45508;-82
2022/10/12 07:41:08;;;;;;;;;35.00;28.50;;;;;11.84;67.62;102198.56;2393419;28;46444;-82
2022/10/12 07:42:18;;;;;;;;;41.25;30.00;;;;;11.88;67.69;102199.38;2393386;28;45329;-82
2022/10/12 07:43:30;;;;;;;;;30.50;26.75;;;;;11.90;67.61;102202.88;2392952;28;45386;-82
2022/10/12 07:44:40;;;;;;;;;28.25;25.75;;;;;11.91;67.72;102205.47;2393394;28;45455;-82
2022/10/12 07:45:50;;;;;;;;;33.25;28.75;;;;;11.93;67.64;102195.78;2393437;28;46348;-82
2022/10/12 07:47:01;;;;;;;;;34.00;28.75;;;;;11.98;67.63;102206.25;2393186;28;45207;-82
2022/10/12 07:48:11;;;;;;;;;31.25;29.25;;;;;12.02;67.46;102196.53;2392522;28;45403;-82
2022/10/12 07:49:21;;;;;;;;;29.75;26.00;;;;;12.02;67.74;102202.69;2384330;28;45425;-83
2022/10/12 07:50:32;;;;;;;;;27.00;27.00;;;;;12.06;67.81;102197.34;2373243;28;47692;-82
2022/10/12 07:51:43;;;;;;;;;42.50;34.75;;;;;12.11;67.54;102206.94;2376684;28;45224;-82
2022/10/12 07:52:53;;;;;;;;;46.00;35.25;;;;;12.12;67.39;102197.28;2397633;28;45294;-82
2022/10/12 07:54:04;;;;;;;;;37.50;31.25;;;;;12.16;67.31;102204.25;2393484;28;45247;-82
2022/10/12 07:55:14;;;;;;;;;44.25;35.00;;;;;12.20;67.34;102208.56;2392296;28;46998;-82
2022/10/12 07:56:26;;;;;;;;;45.25;38.00;;;;;12.21;67.40;102204.19;2385973;28;44629;-82
2022/10/12 07:57:37;;;;;;;;;42.00;34.25;;;;;12.23;67.12;102205.03;2395366;28;45204;-82
2022/10/12 07:58:49;;;;;;;;;41.75;35.00;;;;;12.29;67.33;102219.88;2402803;28;45251;-82
2022/10/12 07:59:59;;;;;;;;;41.00;34.25;;;;;12.29;67.39;102206.69;2395640;28;45351;-80
2022/10/12 08:01:10;;;;;;;;;43.00;36.00;;;;;12.33;67.55;102209.25;2393502;28;45225;-82
2022/10/12 08:02:21;;;;;;;;;46.50;39.75;;;;;12.35;67.13;102220.63;2392102;28;45755;-82
2022/10/12 08:03:31;;;;;;;;;39.50;34.25;;;;;12.38;67.00;102212.69;2391391;28;45175;-82
2022/10/12 08:04:41;;;;;;;;;47.50;36.25;;;;;12.40;67.15;102203.84;2391874;28;45446;-82
2022/10/12 08:05:52;;;;;;;;;46.50;37.75;;;;;12.43;66.94;102209.09;2393228;28;45400;-82
2022/10/12 08:07:03;;;;;;;;;45.50;38.00;;;;;12.46;67.04;102206.41;2393128;28;45357;-82
2022/10/12 08:08:13;;;;;;;;;44.00;39.75;;;;;12.48;67.11;102215.16;2393347;28;45308;-82
2022/10/12 08:09:23;;;;;;;;;44.00;37.50;;;;;12.51;66.99;102206.31;2393230;28;45252;-82
2022/10/12 08:10:35;;;;;;;;;43.25;35.25;;;;;12.55;66.58;102214.16;2393169;28;45176;-82
2022/10/12 08:11:45;;;;;;;;;42.75;35.50;;;;;12.56;66.69;102212.38;2400535;28;45624;-83
2022/10/12 08:12:55;;;;;;;;;35.25;30.75;;;;;12.59;66.50;102212.34;2383295;28;45691;-82
2022/10/12 08:14:12;;;;;;;;;41.50;35.25;;;;;12.60;66.51;102214.94;2392728;28;45325;-82
2022/10/12 08:15:22;;;;;;;;;51.00;36.50;;;;;12.64;66.63;102210.50;2402731;28;44787;-82
2022/10/12 08:16:33;;;;;;;;;43.25;36.50;;;;;12.69;66.34;102218.31;2402466;28;46288;-81
2022/10/12 08:17:43;;;;;;;;;42.75;34.00;;;;;12.69;65.85;102216.53;2402656;28;45230;-83
2022/10/12 08:18:54;;;;;;;;;41.75;34.25;;;;;12.73;65.97;102219.13;2402372;28;45533;-82
2022/10/12 08:20:05;;;;;;;;;38.00;32.00;;;;;12.75;65.83;102223.47;2402563;28;44780;-82
2022/10/12 08:21:16;;;;;;;;;42.00;36.00;;;;;12.79;65.60;102219.03;2390732;28;46655;-82
2022/10/12 08:22:27;;;;;;;;;41.75;34.25;;;;;12.80;65.85;102224.25;2392973;28;45151;-82
2022/10/12 08:23:38;;;;;;;;;35.25;30.25;;;;;12.85;65.58;102225.94;2392997;28;45235;-82
2022/10/12 08:24:48;;;;;;;;;37.00;32.00;;;;;12.88;65.93;102223.25;2392260;28;45362;-82
2022/10/12 08:25:58;;;;;;;;;34.00;24.25;;;;;12.92;65.74;102224.91;2400312;28;46371;-82
2022/10/12 08:27:09;;;;;;;;;33.75;29.75;;;;;12.97;65.55;102227.47;2393289;28;45266;-82
2022/10/12 08:28:20;;;;;;;;;31.75;29.00;;;;;12.99;65.42;102223.06;2392929;28;45005;-82
2022/10/12 08:29:30;;;;;;;;;39.25;27.00;;;;;13.03;66.04;102227.38;2393142;28;45437;-83
2022/10/12 08:30:41;;;;;;;;;36.00;29.50;;;;;13.06;65.55;102219.41;2393065;28;46393;-82
2022/10/12 08:31:53;;;;;;;;;36.50;30.50;;;;;13.11;65.16;102225.44;2392188;28;45410;-83
2022/10/12 08:33:03;;;;;;;;;33.00;27.25;;;;;13.13;65.79;102222.78;2387545;28;46234;-82
2022/10/12 08:34:15;;;;;;;;;37.00;30.25;;;;;13.14;65.63;102214.81;2377619;28;45249;-82
2022/10/12 08:35:25;;;;;;;;;36.00;30.50;;;;;13.18;65.38;102220.91;2393129;28;45396;-82
2022/10/12 08:36:36;;;;;;;;;32.75;31.25;;;;;13.21;65.42;102220.00;2392324;28;45172;-82
2022/10/12 08:37:46;;;;;;;;;37.25;31.75;;;;;13.22;65.50;102222.59;2389981;28;46217;-82
2022/10/12 08:38:57;;;;;;;;;31.75;28.75;;;;;13.25;65.16;102217.25;2383907;28;45232;-83
2022/10/12 08:40:15;;;;;;;;;42.00;35.50;;;;;13.28;65.25;102219.81;2384623;28;46238;-82
2022/10/12 08:41:51;;;;;;;;;35.75;30.00;;;;;13.31;65.20;102216.22;2393006;28;45151;-82
2022/10/12 08:43:20;;;;;;;;;32.00;30.75;;;;;13.36;65.09;102219.66;2392903;28;46321;-82
2022/10/12 08:44:36;;;;;;;;;34.50;31.00;;;;;13.40;65.22;102223.09;2392237;28;44751;-82
2022/10/12 08:45:53;;;;;;;;;30.75;29.50;;;;;13.40;65.37;102215.19;2389352;28;45183;-82
2022/10/12 08:47:31;;;;;;;;;32.75;31.00;;;;;13.47;64.86;102221.19;2393032;28;45210;-82
2022/10/12 08:48:46;;;;;;;;;35.00;30.50;;;;;13.49;64.79;102219.38;2383776;28;45563;-83
2022/10/12 08:49:59;;;;;;;;;33.25;31.75;;;;;13.54;64.89;102221.94;2391133;28;45212;-83
2022/10/12 08:51:14;;;;;;;;;36.75;32.75;;;;;13.55;64.73;102223.69;2392846;28;45543;-83
2022/10/12 08:52:33;;;;;;;;;37.75;30.50;;;;;13.57;64.96;102219.25;2393885;28;45242;-82
2022/10/12 08:53:46;;;;;;;;;32.00;26.75;;;;;13.62;64.39;102220.03;2393604;28;45417;-82
2022/10/12 08:55:05;;;;;;;;;27.75;23.75;;;;;13.63;64.37;102216.47;2394657;28;45445;-82
2022/10/12 08:56:17;;;;;;;;;35.75;29.75;;;;;13.67;64.15;102223.44;2394571;28;45409;-82
2022/10/12 08:57:28;;;;;;;;;38.00;28.50;;;;;13.68;64.36;102217.25;2384512;28;45256;-82
2022/10/12 08:58:38;;;;;;;;;28.00;27.75;;;;;13.73;64.36;102230.34;2386934;28;45470;-83
2022/10/12 08:59:49;;;;;;;;;31.00;28.75;;;;;13.76;63.97;102229.41;2394424;28;45389;-82
2022/10/12 09:01:08;;;;;;;;;30.75;28.75;;;;;13.82;64.18;102239.84;2394218;28;45420;-82
2022/10/12 09:02:30;;;;;;;;;36.75;31.00;;;;;13.85;64.05;102237.16;2394217;28;45444;-82
2022/10/12 09:03:53;;;;;;;;;29.75;23.75;;;;;13.90;64.04;102247.63;2393917;28;45436;-82
2022/10/12 09:05:20;;;;;;;;;25.00;23.25;;;;;13.90;63.95;102240.53;2394417;28;44883;-82
2022/10/12 09:06:38;;;;;;;;;28.00;24.25;;;;;13.96;64.21;102236.88;2394356;28;45433;-82
2022/10/12 09:08:03;;;;;;;;;28.25;24.75;;;;;13.98;64.17;102232.44;2404002;28;45321;-82
2022/10/12 09:09:38;;;;;;;;;26.50;23.75;;;;;14.03;64.09;102232.31;2395838;28;45325;-82
2022/10/12 09:11:13;;;;;;;;;33.00;27.75;;;;;14.06;64.13;102233.13;2388579;28;45495;-82
2022/10/12 09:12:29;;;;;;;;;30.00;27.00;;;;;14.11;64.03;102232.13;2394052;28;45408;-82
2022/10/12 09:13:56;;;;;;;;;24.25;21.50;;;;;14.10;63.56;102219.84;2393987;28;45475;-82
2022/10/12 09:15:16;;;;;;;;;30.25;26.50;;;;;14.16;63.81;102228.50;2394470;28;46436;-83
2022/10/12 09:16:33;;;;;;;;;26.00;24.50;;;;;14.17;63.55;102219.63;2394494;28;45263;-82
2022/10/12 09:17:52;;;;;;;;;29.75;27.75;;;;;14.22;63.80;102218.66;2394395;28;45494;-82
2022/10/12 09:19:14;;;;;;;;;32.25;26.75;;;;;14.26;63.74;102221.19;2386425;28;45349;-82
2022/10/12 09:20:49;;;;;;;;;27.25;25.50;;;;;14.28;63.72;102215.84;2393504;28;45295;-82
2022/10/12 09:22:02;;;;;;;;;31.50;28.00;;;;;14.31;63.41;102215.78;2394304;28;45488;-82
2022/10/12 09:23:32;;;;;;;;;28.75;25.50;;;;;14.38;63.35;102222.66;2393550;28;46586;-82
2022/10/12 09:24:46;;;;;;;;;28.75;25.50;;;;;14.39;63.36;102221.78;2394590;28;45302;-82
2022/10/12 09:26:10;;;;;;;;;29.50;23.75;;;;;14.43;63.19;102219.03;2392994;28;47023;-81
2022/10/12 09:27:21;;;;;;;;;28.75;27.00;;;;;14.48;63.36;102219.78;2394077;28;44835;-81
2022/10/12 09:28:55;;;;;;;;;23.00;20.75;;;;;14.52;63.15;102218.78;2390330;28;47022;-82
2022/10/12 09:30:11;;;;;;;;;27.00;22.25;;;;;14.55;63.13;102217.84;2382179;28;45376;-81
2022/10/12 09:31:30;;;;;;;;;33.50;27.75;;;;;14.59;63.28;102214.22;2390440;28;45636;-82
2022/10/12 09:33:14;;;;;;;;;29.50;22.75;;;;;14.62;63.03;102222.94;2393451;28;45471;-82
2022/10/12 09:34:24;;;;;;;;;26.75;22.25;;;;;14.65;62.94;102211.41;2403708;28;45507;-82
2022/10/12 09:35:36;;;;;;;;;31.25;23.25;;;;;14.69;62.96;102213.03;2383958;28;45515;-81
2022/10/12 09:36:46;;;;;;;;;23.50;21.50;;;;;14.72;62.97;102209.44;2380676;28;46287;-81
2022/10/12 09:37:56;;;;;;;;;26.50;23.50;;;;;14.73;62.60;102203.25;2387044;28;45282;-81
2022/10/12 09:39:18;;;;;;;;;25.75;22.50;;;;;14.78;62.64;102206.66;2403063;28;46152;-80
2022/10/12 09:40:31;;;;;;;;;28.75;26.25;;;;;14.83;62.77;102210.03;2403801;28;45292;-81
2022/10/12 09:41:43;;;;;;;;;22.50;18.25;;;;;14.88;62.70;102207.28;2401887;28;45508;-82
2022/10/12 09:42:56;;;;;;;;;24.25;19.00;;;;;14.90;62.90;102199.31;2394562;28;44581;-82
2022/10/12 09:44:15;;;;;;;;;21.50;19.50;;;;;14.94;62.73;102203.59;2384168;28;47190;-81
2022/10/12 09:45:28;;;;;;;;;23.00;22.25;;;;;14.97;62.91;102198.22;2385968;28;45491;-82
2022/10/12 09:46:46;;;;;;;;;25.25;23.75;;;;;15.00;62.43;102199.91;2393811;28;45394;-82
2022/10/12 09:48:16;;;;;;;;;28.50;22.00;;;;;15.02;62.61;102191.00;2393960;28;45495;-81
2022/10/12 09:49:40;;;;;;;;;32.25;26.25;;;;;15.05;62.84;102203.28;2393788;28;45419;-81
2022/10/12 09:50:50;;;;;;;;;35.00;27.25;;;;;15.08;62.90;102203.22;2374884;28;45288;-81
2022/10/12 09:52:01;;;;;;;;;28.00;23.25;;;;;15.09;63.12;102193.50;2385022;28;45443;-82
2022/10/12 09:53:18;;;;;;;;;29.25;25.75;;;;;15.10;62.82;102188.16;2394241;28;44680;-82
2022/10/12 09:54:28;;;;;;;;;22.25;19.75;;;;;15.13;62.63;102189.84;2403497;28;45462;-82
2022/10/12 09:55:39;;;;;;;;;24.50;24.25;;;;;15.16;62.60;102185.31;2393538;28;45364;-82
2022/10/12 09:56:51;;;;;;;;;26.50;24.25;;;;;15.17;62.85;102187.06;2396122;28;45414;-82
2022/10/12 09:58:01;;;;;;;;;31.25;25.50;;;;;15.20;62.58;102186.09;2396742;28;45230;-82
2022/10/12 09:59:21;;;;;;;;;29.25;23.25;;;;;15.24;62.92;102186.84;2393985;28;45346;-82
2022/10/12 10:00:33;;;;;;;;;33.00;24.75;;;;;15.25;62.48;102189.47;2394106;28;45433;-82
2022/10/12 10:01:58;;;;;;;;;31.75;24.50;;;;;15.26;62.55;102187.72;2389671;28;47283;-82
2022/10/12 10:03:23;;;;;;;;;29.25;22.75;;;;;15.29;62.50;102190.25;2388800;28;45255;-82
2022/10/12 10:04:33;;;;;;;;;29.75;27.50;;;;;15.32;62.54;102197.22;2393964;28;46335;-82
2022/10/12 10:05:43;;;;;;;;;27.25;22.00;;;;;15.35;62.49;102194.50;2394202;28;45305;-82
2022/10/12 10:06:54;;;;;;;;;26.25;25.00;;;;;15.38;62.32;102194.41;2393903;28;45480;-82
2022/10/12 10:08:13;;;;;;;;;25.00;21.25;;;;;15.43;62.45;102194.28;2394026;28;45343;-82
2022/10/12 10:09:33;;;;;;;;;28.50;24.50;;;;;15.48;62.21;102187.06;2394059;28;45459;-82
2022/10/12 10:10:54;;;;;;;;;26.75;22.75;;;;;15.50;62.55;102188.75;2394205;28;45252;-82
2022/10/12 10:12:22;;;;;;;;;27.25;25.25;;;;;15.56;62.72;102181.50;2393755;28;45735;-82
2022/10/12 10:13:36;;;;;;;;;32.50;27.00;;;;;15.62;62.92;102181.31;2394094;28;45266;-82
2022/10/12 10:14:48;;;;;;;;;26.25;24.00;;;;;15.68;62.48;102181.13;2393989;28;45289;-82
2022/10/12 10:16:05;;;;;;;;;26.00;23.50;;;;;15.74;62.58;102183.59;2394231;28;44681;-82
2022/10/12 10:17:23;;;;;;;;;25.00;22.00;;;;;15.79;62.30;102172.84;2392689;28;47473;-82
2022/10/12 10:18:35;;;;;;;;;26.75;20.75;;;;;15.85;62.20;102171.78;2396668;28;45261;-82
2022/10/12 10:19:50;;;;;;;;;16.00;15.75;;;;;15.90;62.03;102167.16;2403311;28;46693;-82
2022/10/12 10:21:03;;;;;;;;;34.75;24.25;;;;;15.97;62.07;102174.03;2403466;28;45249;-82
2022/10/12 10:22:14;;;;;;;;;32.50;24.25;;;;;16.02;61.92;102173.88;2397085;28;46523;-82
2022/10/12 10:23:31;;;;;;;;;25.25;24.50;;;;;16.09;61.64;102177.22;2394055;28;45194;-82
2022/10/12 10:24:41;;;;;;;;;26.25;24.00;;;;;16.13;61.90;102181.47;2393460;28;46633;-82
2022/10/12 10:26:07;;;;;;;;;20.75;18.50;;;;;16.20;61.05;102179.50;2388780;28;45141;-82
2022/10/12 10:27:43;;;;;;;;;25.25;23.00;;;;;16.29;61.35;102183.63;2394037;28;46166;-82
2022/10/12 10:28:57;;;;;;;;;36.75;29.00;;;;;16.34;61.47;102186.13;2390058;28;45235;-82
2022/10/12 10:30:20;;;;;;;;;23.50;22.50;;;;;16.42;61.35;102179.63;2396439;28;46605;-82
2022/10/12 10:31:34;;;;;;;;;28.75;23.50;;;;;16.48;61.17;102177.66;2403443;28;45329;-82
2022/10/12 10:32:45;;;;;;;;;31.00;24.50;;;;;16.53;61.12;102173.94;2392602;28;47043;-82
2022/10/12 10:34:08;;;;;;;;;30.25;26.75;;;;;16.61;60.78;102165.72;2395953;28;45198;-82
2022/10/12 10:35:21;;;;;;;;;25.75;22.50;;;;;16.65;60.65;102175.28;2403244;28;46583;-82